KSHV/SHV METAR and TAF weather

Enter ICAO airport designator
Station Type Date Time Source
KSHV METAR 2021/06/24 04:56 UTC NOAA

KSHV 240456Z 15008KT 10SM CLR 27/23 A3001 RMK AO2 SLP157 T02720228


Station Type Date Time Source
KSHV Decoded METAR 2021/06/24 04:56 UTC NOAA

SHREVEPORT REGIONAL AIRPORT, LA, United States (KSHV) 32-27N 93-50W 80M
Jun 24, 2021 - 12:56 AM EDT / 2021.06.24 0456 UTC
Wind: from the SSE (150 degrees) at 9 MPH (8 KT):0
Visibility: 10 mile(s):0
Sky conditions: clear
Temperature: 81.0 F (27.2 C)
Dew Point: 73.0 F (22.8 C)
Relative Humidity: 76%
Pressure (altimeter): 30.01 in. Hg (1016 hPa)
ob: KSHV 240456Z 15008KT 10SM CLR 27/23 A3001 RMK AO2 SLP157 T02720228
cycle: 5

Station Type Date Time Source
KSHV TAF 2021/06/24 06:36 UTC NOAA

TAF KSHV 240535Z 2406/2506 15007KT P6SM SKC
FM240900 16006KT P6SM SCT015
TEMPO 2409/2412 BKN015
FM241200 17005KT P6SM BKN015
FM241500 20008KT P6SM BKN025
FM241700 19008KT P6SM SCT040 SCT250
FM250100 17005KT P6SM SKC

Example: see airport list